createdAt,value
2023-03-02T00:01:41.508Z,99649.78
2023-03-02T00:04:11.869Z,99644.16
2023-03-02T00:06:38.965Z,99646.19
2023-03-02T00:09:06.366Z,99639.38
2023-03-02T00:11:35.336Z,99633.88
2023-03-02T00:14:01.854Z,99636.03
2023-03-02T00:16:28.514Z,99642.81
2023-03-02T00:18:55.021Z,99645.41
2023-03-02T00:21:21.721Z,99653.03
2023-03-02T00:23:48.604Z,99639.00
2023-03-02T00:26:15.184Z,99641.28
2023-03-02T00:28:41.746Z,99650.50
2023-03-02T00:31:08.544Z,99652.63
2023-03-02T00:33:35.167Z,99650.41
2023-03-02T00:36:02.931Z,99653.69
2023-03-02T00:38:29.927Z,99652.09
2023-03-02T00:40:56.567Z,99648.22
2023-03-02T00:43:27.404Z,99650.41
2023-03-02T00:45:56.860Z,99639.59
2023-03-02T00:48:23.533Z,99636.03
2023-03-02T00:50:50.619Z,99628.63
2023-03-02T00:53:18.093Z,99626.91
2023-03-02T00:55:53.566Z,99628.63
2023-03-02T00:58:21.338Z,99629.47
2023-03-02T01:00:48.135Z,99621.41
2023-03-02T01:03:15.036Z,99616.66
2023-03-02T01:05:41.729Z,99623.91
2023-03-02T01:08:08.351Z,99621.94
2023-03-02T01:10:35.172Z,99621.59
2023-03-02T01:13:01.801Z,99621.59
2023-03-02T01:15:28.374Z,99622.63
2023-03-02T01:17:54.905Z,99629.22
2023-03-02T01:20:21.478Z,99620.75
2023-03-02T01:22:48.075Z,99613.34
2023-03-02T01:25:14.644Z,99613.47
2023-03-02T01:27:41.354Z,99622.69
2023-03-02T01:30:08.579Z,99612.09
2023-03-02T01:32:35.399Z,99616.75
2023-03-02T01:35:02.123Z,99610.22
2023-03-02T01:37:28.938Z,99608.19
2023-03-02T01:39:55.447Z,99609.56
2023-03-02T01:42:22.113Z,99607.25
2023-03-02T01:44:51.493Z,99617.38
2023-03-02T01:47:23.118Z,99612.09
2023-03-02T01:50:01.201Z,99608.81
2023-03-02T01:52:32.169Z,99612.31
2023-03-02T01:55:03.292Z,99618.25
2023-03-02T01:57:34.529Z,99612.06
2023-03-02T02:00:08.498Z,99621.53
